sensor_id;sensor_type;location;lat;lon;timestamp;P1;durP1;ratioP1;P2;durP2;ratioP2
177;SDS011;77;48.792;9.032;2022-07-09T00:01:21;8.23;;;4.30;;
177;SDS011;77;48.792;9.032;2022-07-09T00:03:46;6.13;;;3.83;;
177;SDS011;77;48.792;9.032;2022-07-09T00:06:12;5.40;;;4.10;;
177;SDS011;77;48.792;9.032;2022-07-09T00:08:37;6.80;;;4.17;;
177;SDS011;77;48.792;9.032;2022-07-09T00:11:02;7.60;;;4.63;;
177;SDS011;77;48.792;9.032;2022-07-09T00:13:27;7.33;;;4.20;;
177;SDS011;77;48.792;9.032;2022-07-09T00:15:52;6.40;;;4.07;;
177;SDS011;77;48.792;9.032;2022-07-09T00:18:19;9.47;;;4.30;;
177;SDS011;77;48.792;9.032;2022-07-09T00:20:44;6.17;;;4.00;;
177;SDS011;77;48.792;9.032;2022-07-09T00:23:09;5.10;;;4.17;;
177;SDS011;77;48.792;9.032;2022-07-09T00:25:34;7.17;;;3.93;;
177;SDS011;77;48.792;9.032;2022-07-09T00:28:00;10.30;;;4.50;;
177;SDS011;77;48.792;9.032;2022-07-09T00:30:25;8.40;;;4.43;;
177;SDS011;77;48.792;9.032;2022-07-09T00:32:50;6.70;;;4.00;;
177;SDS011;77;48.792;9.032;2022-07-09T00:35:16;7.13;;;4.07;;
177;SDS011;77;48.792;9.032;2022-07-09T00:37:42;7.77;;;4.23;;
177;SDS011;77;48.792;9.032;2022-07-09T00:40:07;7.33;;;4.00;;
177;SDS011;77;48.792;9.032;2022-07-09T00:42:32;7.23;;;4.47;;
177;SDS011;77;48.792;9.032;2022-07-09T00:44:57;9.63;;;4.43;;
177;SDS011;77;48.792;9.032;2022-07-09T00:47:22;6.23;;;4.07;;
177;SDS011;77;48.792;9.032;2022-07-09T00:49:48;7.63;;;4.53;;
177;SDS011;77;48.792;9.032;2022-07-09T00:52:14;6.63;;;4.37;;
177;SDS011;77;48.792;9.032;2022-07-09T00:54:40;7.03;;;4.20;;
177;SDS011;77;48.792;9.032;2022-07-09T00:57:06;6.53;;;4.30;;
177;SDS011;77;48.792;9.032;2022-07-09T00:59:32;6.70;;;4.17;;
177;SDS011;77;48.792;9.032;2022-07-09T01:01:58;5.67;;;3.97;;
177;SDS011;77;48.792;9.032;2022-07-09T01:04:24;6.23;;;4.30;;
177;SDS011;77;48.792;9.032;2022-07-09T01:06:49;5.30;;;3.87;;
177;SDS011;77;48.792;9.032;2022-07-09T01:09:16;8.53;;;4.10;;
177;SDS011;77;48.792;9.032;2022-07-09T01:11:41;5.87;;;4.20;;
177;SDS011;77;48.792;9.032;2022-07-09T01:14:06;7.90;;;4.50;;
177;SDS011;77;48.792;9.032;2022-07-09T01:16:32;6.70;;;4.23;;
177;SDS011;77;48.792;9.032;2022-07-09T01:18:57;9.60;;;4.33;;
177;SDS011;77;48.792;9.032;2022-07-09T01:21:24;7.00;;;4.47;;
177;SDS011;77;48.792;9.032;2022-07-09T01:23:49;6.73;;;4.60;;
177;SDS011;77;48.792;9.032;2022-07-09T01:26:15;7.67;;;4.40;;
177;SDS011;77;48.792;9.032;2022-07-09T01:28:40;7.17;;;4.10;;
177;SDS011;77;48.792;9.032;2022-07-09T01:31:05;9.60;;;4.53;;
177;SDS011;77;48.792;9.032;2022-07-09T01:33:30;6.03;;;4.20;;
177;SDS011;77;48.792;9.032;2022-07-09T01:35:55;10.17;;;4.43;;
177;SDS011;77;48.792;9.032;2022-07-09T01:38:22;8.80;;;4.50;;
177;SDS011;77;48.792;9.032;2022-07-09T01:40:47;7.17;;;4.40;;
177;SDS011;77;48.792;9.032;2022-07-09T01:43:12;6.50;;;4.10;;
177;SDS011;77;48.792;9.032;2022-07-09T01:45:37;8.03;;;4.50;;
177;SDS011;77;48.792;9.032;2022-07-09T01:48:03;8.20;;;4.40;;
177;SDS011;77;48.792;9.032;2022-07-09T01:50:28;7.27;;;4.67;;
177;SDS011;77;48.792;9.032;2022-07-09T01:52:53;5.80;;;4.60;;
177;SDS011;77;48.792;9.032;2022-07-09T01:55:20;9.10;;;4.43;;
177;SDS011;77;48.792;9.032;2022-07-09T01:57:45;7.13;;;4.50;;
177;SDS011;77;48.792;9.032;2022-07-09T02:00:10;8.03;;;4.40;;
177;SDS011;77;48.792;9.032;2022-07-09T02:02:36;7.63;;;4.10;;
177;SDS011;77;48.792;9.032;2022-07-09T02:05:01;7.03;;;4.50;;
177;SDS011;77;48.792;9.032;2022-07-09T02:07:26;7.33;;;4.63;;
177;SDS011;77;48.792;9.032;2022-07-09T02:09:51;5.90;;;4.20;;
177;SDS011;77;48.792;9.032;2022-07-09T02:12:18;9.00;;;4.40;;
177;SDS011;77;48.792;9.032;2022-07-09T02:14:43;5.73;;;4.10;;
177;SDS011;77;48.792;9.032;2022-07-09T02:17:08;7.97;;;4.63;;
177;SDS011;77;48.792;9.032;2022-07-09T02:19:33;6.73;;;4.37;;
177;SDS011;77;48.792;9.032;2022-07-09T02:21:59;7.20;;;4.60;;
177;SDS011;77;48.792;9.032;2022-07-09T02:24:24;6.13;;;4.50;;
177;SDS011;77;48.792;9.032;2022-07-09T02:26:49;5.17;;;4.00;;
177;SDS011;77;48.792;9.032;2022-07-09T02:29:16;7.03;;;4.20;;
177;SDS011;77;48.792;9.032;2022-07-09T02:31:41;5.73;;;4.33;;
177;SDS011;77;48.792;9.032;2022-07-09T02:34:06;7.20;;;5.00;;
177;SDS011;77;48.792;9.032;2022-07-09T02:36:31;7.90;;;4.90;;
177;SDS011;77;48.792;9.032;2022-07-09T02:38:56;6.60;;;4.27;;
177;SDS011;77;48.792;9.032;2022-07-09T02:41:21;6.23;;;4.40;;
177;SDS011;77;48.792;9.032;2022-07-09T02:43:46;9.10;;;4.47;;
177;SDS011;77;48.792;9.032;2022-07-09T02:46:13;7.50;;;4.40;;
177;SDS011;77;48.792;9.032;2022-07-09T02:48:38;9.27;;;4.57;;
177;SDS011;77;48.792;9.032;2022-07-09T02:51:03;10.10;;;4.80;;
177;SDS011;77;48.792;9.032;2022-07-09T02:53:29;6.20;;;4.47;;
177;SDS011;77;48.792;9.032;2022-07-09T02:55:54;7.33;;;4.80;;
177;SDS011;77;48.792;9.032;2022-07-09T02:58:19;8.13;;;4.50;;
177;SDS011;77;48.792;9.032;2022-07-09T03:00:44;10.67;;;4.80;;
177;SDS011;77;48.792;9.032;2022-07-09T03:03:11;7.00;;;4.77;;
177;SDS011;77;48.792;9.032;2022-07-09T03:05:36;5.93;;;4.37;;
177;SDS011;77;48.792;9.032;2022-07-09T03:08:02;6.03;;;4.50;;
177;SDS011;77;48.792;9.032;2022-07-09T03:10:27;7.30;;;4.43;;
177;SDS011;77;48.792;9.032;2022-07-09T03:12:52;7.17;;;4.40;;
177;SDS011;77;48.792;9.032;2022-07-09T03:15:18;7.67;;;4.70;;
177;SDS011;77;48.792;9.032;2022-07-09T03:17:43;7.70;;;4.57;;
177;SDS011;77;48.792;9.032;2022-07-09T03:20:10;8.07;;;4.50;;
177;SDS011;77;48.792;9.032;2022-07-09T03:22:36;6.17;;;4.77;;
177;SDS011;77;48.792;9.032;2022-07-09T03:25:01;7.83;;;4.47;;
177;SDS011;77;48.792;9.032;2022-07-09T03:27:26;8.63;;;4.50;;
177;SDS011;77;48.792;9.032;2022-07-09T03:29:51;6.80;;;4.60;;
177;SDS011;77;48.792;9.032;2022-07-09T03:32:16;7.07;;;5.00;;
177;SDS011;77;48.792;9.032;2022-07-09T03:34:42;10.30;;;4.93;;
177;SDS011;77;48.792;9.032;2022-07-09T03:37:08;7.07;;;4.77;;
177;SDS011;77;48.792;9.032;2022-07-09T03:39:33;10.50;;;5.40;;
177;SDS011;77;48.792;9.032;2022-07-09T03:41:58;7.73;;;4.70;;
177;SDS011;77;48.792;9.032;2022-07-09T03:44:24;6.93;;;5.10;;
177;SDS011;77;48.792;9.032;2022-07-09T03:46:49;8.33;;;5.10;;
177;SDS011;77;48.792;9.032;2022-07-09T03:49:14;8.90;;;5.03;;
177;SDS011;77;48.792;9.032;2022-07-09T03:51:39;8.33;;;5.13;;
177;SDS011;77;48.792;9.032;2022-07-09T03:54:06;5.73;;;4.30;;
177;SDS011;77;48.792;9.032;2022-07-09T03:56:31;6.43;;;5.00;;
177;SDS011;77;48.792;9.032;2022-07-09T03:58:56;8.60;;;4.37;;
177;SDS011;77;48.792;9.032;2022-07-09T04:01:21;8.50;;;5.20;;
177;SDS011;77;48.792;9.032;2022-07-09T04:03:46;7.10;;;4.70;;
177;SDS011;77;48.792;9.032;2022-07-09T04:06:11;6.50;;;4.60;;
177;SDS011;77;48.792;9.032;2022-07-09T04:08:37;7.90;;;5.07;;
177;SDS011;77;48.792;9.032;2022-07-09T04:11:03;7.87;;;4.90;;
177;SDS011;77;48.792;9.032;2022-07-09T04:13:29;9.90;;;4.90;;
177;SDS011;77;48.792;9.032;2022-07-09T04:15:54;5.97;;;4.80;;
177;SDS011;77;48.792;9.032;2022-07-09T04:18:19;6.03;;;4.80;;
177;SDS011;77;48.792;9.032;2022-07-09T04:20:44;8.43;;;4.80;;
177;SDS011;77;48.792;9.032;2022-07-09T04:23:09;6.10;;;4.60;;
177;SDS011;77;48.792;9.032;2022-07-09T04:25:34;7.20;;;4.80;;
177;SDS011;77;48.792;9.032;2022-07-09T04:28:01;6.27;;;4.70;;
177;SDS011;77;48.792;9.032;2022-07-09T04:30:26;8.53;;;4.93;;
177;SDS011;77;48.792;9.032;2022-07-09T04:32:51;7.10;;;5.10;;
177;SDS011;77;48.792;9.032;2022-07-09T04:35:17;7.60;;;5.10;;
177;SDS011;77;48.792;9.032;2022-07-09T04:37:42;7.30;;;5.23;;
177;SDS011;77;48.792;9.032;2022-07-09T04:40:07;9.67;;;5.20;;
177;SDS011;77;48.792;9.032;2022-07-09T04:42:32;8.47;;;5.50;;
177;SDS011;77;48.792;9.032;2022-07-09T04:44:59;9.13;;;4.77;;
177;SDS011;77;48.792;9.032;2022-07-09T04:47:24;7.90;;;4.83;;
177;SDS011;77;48.792;9.032;2022-07-09T04:49:49;7.40;;;5.53;;
177;SDS011;77;48.792;9.032;2022-07-09T04:52:14;10.83;;;5.37;;
177;SDS011;77;48.792;9.032;2022-07-09T04:54:40;7.70;;;5.17;;
177;SDS011;77;48.792;9.032;2022-07-09T04:57:05;7.33;;;5.27;;
177;SDS011;77;48.792;9.032;2022-07-09T04:59:30;8.50;;;5.27;;
177;SDS011;77;48.792;9.032;2022-07-09T05:01:57;8.77;;;5.70;;
177;SDS011;77;48.792;9.032;2022-07-09T05:04:22;7.30;;;5.40;;
177;SDS011;77;48.792;9.032;2022-07-09T05:06:47;8.83;;;5.00;;
177;SDS011;77;48.792;9.032;2022-07-09T05:09:12;7.70;;;5.23;;
177;SDS011;77;48.792;9.032;2022-07-09T05:11:37;6.67;;;5.30;;
177;SDS011;77;48.792;9.032;2022-07-09T05:14:02;7.00;;;5.40;;
177;SDS011;77;48.792;9.032;2022-07-09T05:16:28;7.40;;;5.30;;
177;SDS011;77;48.792;9.032;2022-07-09T05:18:54;7.80;;;5.57;;
177;SDS011;77;48.792;9.032;2022-07-09T05:21:19;8.40;;;5.20;;
177;SDS011;77;48.792;9.032;2022-07-09T05:23:44;7.23;;;5.23;;
177;SDS011;77;48.792;9.032;2022-07-09T05:26:10;7.57;;;5.40;;
177;SDS011;77;48.792;9.032;2022-07-09T05:28:35;7.63;;;5.53;;
177;SDS011;77;48.792;9.032;2022-07-09T05:31:00;6.80;;;5.20;;
177;SDS011;77;48.792;9.032;2022-07-09T05:33:25;9.80;;;5.37;;
177;SDS011;77;48.792;9.032;2022-07-09T05:35:52;7.67;;;5.40;;
177;SDS011;77;48.792;9.032;2022-07-09T05:38:17;8.03;;;4.97;;
177;SDS011;77;48.792;9.032;2022-07-09T05:40:42;7.40;;;5.30;;
177;SDS011;77;48.792;9.032;2022-07-09T05:43:08;8.77;;;5.23;;
177;SDS011;77;48.792;9.032;2022-07-09T05:45:33;9.30;;;5.40;;
177;SDS011;77;48.792;9.032;2022-07-09T05:47:58;8.57;;;5.67;;
177;SDS011;77;48.792;9.032;2022-07-09T05:50:23;11.07;;;5.50;;
177;SDS011;77;48.792;9.032;2022-07-09T05:52:50;10.73;;;5.40;;
177;SDS011;77;48.792;9.032;2022-07-09T05:55:15;6.70;;;5.03;;
177;SDS011;77;48.792;9.032;2022-07-09T05:57:40;7.30;;;4.93;;
177;SDS011;77;48.792;9.032;2022-07-09T06:00:06;7.03;;;5.10;;
177;SDS011;77;48.792;9.032;2022-07-09T06:02:31;8.20;;;5.03;;
177;SDS011;77;48.792;9.032;2022-07-09T06:04:56;6.70;;;5.10;;
177;SDS011;77;48.792;9.032;2022-07-09T06:07:21;8.10;;;5.50;;
177;SDS011;77;48.792;9.032;2022-07-09T06:09:48;7.10;;;5.10;;
177;SDS011;77;48.792;9.032;2022-07-09T06:12:13;6.40;;;4.90;;
177;SDS011;77;48.792;9.032;2022-07-09T06:14:38;10.00;;;5.50;;
177;SDS011;77;48.792;9.032;2022-07-09T06:17:04;8.03;;;5.13;;
177;SDS011;77;48.792;9.032;2022-07-09T06:19:29;7.77;;;5.10;;
177;SDS011;77;48.792;9.032;2022-07-09T06:21:54;8.87;;;5.13;;
177;SDS011;77;48.792;9.032;2022-07-09T06:24:20;6.67;;;4.50;;
177;SDS011;77;48.792;9.032;2022-07-09T06:26:46;8.60;;;5.20;;
177;SDS011;77;48.792;9.032;2022-07-09T06:29:11;8.63;;;4.80;;
177;SDS011;77;48.792;9.032;2022-07-09T06:31:36;7.50;;;5.20;;
177;SDS011;77;48.792;9.032;2022-07-09T06:34:01;7.17;;;5.10;;
177;SDS011;77;48.792;9.032;2022-07-09T06:36:27;6.60;;;4.87;;
177;SDS011;77;48.792;9.032;2022-07-09T06:38:52;7.93;;;4.97;;
177;SDS011;77;48.792;9.032;2022-07-09T06:41:17;6.50;;;4.93;;
177;SDS011;77;48.792;9.032;2022-07-09T06:43:43;8.60;;;5.27;;
177;SDS011;77;48.792;9.032;2022-07-09T06:46:09;9.10;;;4.90;;
177;SDS011;77;48.792;9.032;2022-07-09T06:48:34;10.00;;;5.00;;
177;SDS011;77;48.792;9.032;2022-07-09T06:50:59;8.17;;;4.93;;
177;SDS011;77;48.792;9.032;2022-07-09T06:53:24;6.87;;;4.40;;
177;SDS011;77;48.792;9.032;2022-07-09T06:55:49;5.90;;;4.73;;
177;SDS011;77;48.792;9.032;2022-07-09T06:58:14;7.43;;;4.97;;
177;SDS011;77;48.792;9.032;2022-07-09T07:00:41;8.70;;;5.50;;
177;SDS011;77;48.792;9.032;2022-07-09T07:03:06;9.07;;;5.30;;
177;SDS011;77;48.792;9.032;2022-07-09T07:05:31;8.80;;;4.90;;
177;SDS011;77;48.792;9.032;2022-07-09T07:07:57;10.63;;;5.20;;
177;SDS011;77;48.792;9.032;2022-07-09T07:10:22;9.57;;;5.10;;
177;SDS011;77;48.792;9.032;2022-07-09T07:12:47;8.50;;;4.77;;
177;SDS011;77;48.792;9.032;2022-07-09T07:15:12;9.20;;;4.00;;
177;SDS011;77;48.792;9.032;2022-07-09T07:17:39;9.77;;;5.00;;
177;SDS011;77;48.792;9.032;2022-07-09T07:20:04;7.63;;;4.37;;
177;SDS011;77;48.792;9.032;2022-07-09T07:22:30;6.80;;;4.60;;
177;SDS011;77;48.792;9.032;2022-07-09T07:24:55;9.80;;;4.50;;
177;SDS011;77;48.792;9.032;2022-07-09T07:27:20;7.33;;;4.40;;
177;SDS011;77;48.792;9.032;2022-07-09T07:29:45;6.30;;;4.33;;
177;SDS011;77;48.792;9.032;2022-07-09T07:32:10;6.10;;;4.00;;
177;SDS011;77;48.792;9.032;2022-07-09T07:34:37;6.60;;;4.47;;
177;SDS011;77;48.792;9.032;2022-07-09T07:37:02;7.13;;;4.20;;
177;SDS011;77;48.792;9.032;2022-07-09T07:39:28;7.40;;;4.43;;
177;SDS011;77;48.792;9.032;2022-07-09T07:41:53;7.77;;;3.80;;
177;SDS011;77;48.792;9.032;2022-07-09T07:44:18;5.57;;;3.93;;
177;SDS011;77;48.792;9.032;2022-07-09T07:46:43;7.30;;;3.40;;
177;SDS011;77;48.792;9.032;2022-07-09T07:49:08;7.90;;;3.73;;
177;SDS011;77;48.792;9.032;2022-07-09T07:51:35;5.63;;;3.37;;
177;SDS011;77;48.792;9.032;2022-07-09T07:54:00;7.40;;;3.50;;
177;SDS011;77;48.792;9.032;2022-07-09T07:56:25;5.93;;;3.50;;
177;SDS011;77;48.792;9.032;2022-07-09T07:58:50;5.00;;;3.30;;
177;SDS011;77;48.792;9.032;2022-07-09T08:01:16;4.70;;;3.20;;
177;SDS011;77;48.792;9.032;2022-07-09T08:03:41;7.07;;;3.50;;
177;SDS011;77;48.792;9.032;2022-07-09T08:06:06;8.23;;;3.90;;
177;SDS011;77;48.792;9.032;2022-07-09T08:08:32;6.10;;;3.70;;
177;SDS011;77;48.792;9.032;2022-07-09T08:10:58;6.10;;;3.50;;
177;SDS011;77;48.792;9.032;2022-07-09T08:13:25;6.83;;;4.23;;
177;SDS011;77;48.792;9.032;2022-07-09T08:15:50;7.23;;;3.43;;
177;SDS011;77;48.792;9.032;2022-07-09T08:18:15;8.10;;;3.10;;
177;SDS011;77;48.792;9.032;2022-07-09T08:20:40;5.93;;;3.00;;
177;SDS011;77;48.792;9.032;2022-07-09T08:23:06;8.27;;;3.10;;
177;SDS011;77;48.792;9.032;2022-07-09T08:25:32;6.20;;;3.30;;
177;SDS011;77;48.792;9.032;2022-07-09T08:27:58;6.10;;;3.13;;
177;SDS011;77;48.792;9.032;2022-07-09T08:30:23;6.50;;;3.00;;
177;SDS011;77;48.792;9.032;2022-07-09T08:32:48;6.60;;;3.30;;
177;SDS011;77;48.792;9.032;2022-07-09T08:35:13;5.03;;;3.00;;
177;SDS011;77;48.792;9.032;2022-07-09T08:37:39;7.27;;;3.53;;
177;SDS011;77;48.792;9.032;2022-07-09T08:40:04;7.43;;;3.60;;
177;SDS011;77;48.792;9.032;2022-07-09T08:42:31;6.10;;;3.30;;
177;SDS011;77;48.792;9.032;2022-07-09T08:44:56;7.07;;;3.03;;
177;SDS011;77;48.792;9.032;2022-07-09T08:47:22;7.53;;;3.23;;
177;SDS011;77;48.792;9.032;2022-07-09T08:49:47;7.80;;;3.30;;
177;SDS011;77;48.792;9.032;2022-07-09T08:52:13;6.10;;;3.17;;
177;SDS011;77;48.792;9.032;2022-07-09T08:54:39;5.10;;;3.23;;
177;SDS011;77;48.792;9.032;2022-07-09T08:57:05;9.43;;;3.50;;
177;SDS011;77;48.792;9.032;2022-07-09T08:59:32;5.53;;;3.20;;
177;SDS011;77;48.792;9.032;2022-07-09T09:01:57;6.40;;;3.50;;
177;SDS011;77;48.792;9.032;2022-07-09T09:04:22;6.30;;;3.20;;
177;SDS011;77;48.792;9.032;2022-07-09T09:06:48;6.20;;;3.27;;
177;SDS011;77;48.792;9.032;2022-07-09T09:09:17;5.23;;;3.50;;
177;SDS011;77;48.792;9.032;2022-07-09T09:11:43;5.07;;;3.47;;
177;SDS011;77;48.792;9.032;2022-07-09T09:14:08;5.77;;;2.90;;
177;SDS011;77;48.792;9.032;2022-07-09T09:16:43;5.40;;;2.93;;
177;SDS011;77;48.792;9.032;2022-07-09T09:19:08;5.03;;;3.53;;
177;SDS011;77;48.792;9.032;2022-07-09T09:21:34;4.07;;;3.20;;
177;SDS011;77;48.792;9.032;2022-07-09T09:24:02;4.63;;;2.90;;
177;SDS011;77;48.792;9.032;2022-07-09T09:26:28;4.33;;;2.97;;
177;SDS011;77;48.792;9.032;2022-07-09T09:28:54;5.27;;;2.80;;
177;SDS011;77;48.792;9.032;2022-07-09T09:31:20;3.90;;;2.83;;
177;SDS011;77;48.792;9.032;2022-07-09T09:33:47;6.07;;;3.30;;
177;SDS011;77;48.792;9.032;2022-07-09T09:36:24;7.07;;;2.90;;
177;SDS011;77;48.792;9.032;2022-07-09T09:38:49;4.63;;;2.70;;
177;SDS011;77;48.792;9.032;2022-07-09T09:41:20;3.63;;;2.80;;
177;SDS011;77;48.792;9.032;2022-07-09T09:43:45;3.47;;;2.70;;
177;SDS011;77;48.792;9.032;2022-07-09T09:46:11;4.57;;;2.60;;
177;SDS011;77;48.792;9.032;2022-07-09T09:48:36;4.77;;;3.00;;
177;SDS011;77;48.792;9.032;2022-07-09T09:51:03;3.80;;;2.60;;
177;SDS011;77;48.792;9.032;2022-07-09T09:53:30;4.90;;;2.60;;
177;SDS011;77;48.792;9.032;2022-07-09T09:55:56;4.50;;;2.80;;
177;SDS011;77;48.792;9.032;2022-07-09T09:58:22;5.70;;;3.20;;
177;SDS011;77;48.792;9.032;2022-07-09T10:00:47;5.90;;;3.10;;
177;SDS011;77;48.792;9.032;2022-07-09T10:03:12;5.77;;;2.60;;
177;SDS011;77;48.792;9.032;2022-07-09T10:05:39;6.80;;;4.00;;
177;SDS011;77;48.792;9.032;2022-07-09T10:08:06;5.50;;;3.60;;
177;SDS011;77;48.792;9.032;2022-07-09T10:10:32;6.03;;;2.70;;
177;SDS011;77;48.792;9.032;2022-07-09T10:12:57;5.50;;;3.17;;
177;SDS011;77;48.792;9.032;2022-07-09T10:15:23;5.40;;;3.17;;
177;SDS011;77;48.792;9.032;2022-07-09T10:17:48;5.57;;;3.00;;
177;SDS011;77;48.792;9.032;2022-07-09T10:20:13;3.60;;;2.87;;
177;SDS011;77;48.792;9.032;2022-07-09T10:22:39;3.97;;;2.77;;
177;SDS011;77;48.792;9.032;2022-07-09T10:25:06;4.63;;;2.90;;
177;SDS011;77;48.792;9.032;2022-07-09T10:27:40;5.33;;;3.40;;
177;SDS011;77;48.792;9.032;2022-07-09T10:30:06;4.93;;;3.23;;
177;SDS011;77;48.792;9.032;2022-07-09T10:32:32;6.97;;;3.63;;
177;SDS011;77;48.792;9.032;2022-07-09T10:34:57;4.57;;;3.00;;
177;SDS011;77;48.792;9.032;2022-07-09T10:37:30;4.70;;;3.00;;
177;SDS011;77;48.792;9.032;2022-07-09T10:39:56;5.23;;;2.80;;
177;SDS011;77;48.792;9.032;2022-07-09T10:42:22;6.20;;;3.20;;
177;SDS011;77;48.792;9.032;2022-07-09T10:44:47;4.97;;;3.07;;
177;SDS011;77;48.792;9.032;2022-07-09T10:47:13;7.57;;;3.03;;
177;SDS011;77;48.792;9.032;2022-07-09T10:49:38;5.60;;;2.83;;
177;SDS011;77;48.792;9.032;2022-07-09T10:52:04;4.40;;;2.80;;
177;SDS011;77;48.792;9.032;2022-07-09T10:54:29;4.73;;;2.77;;
177;SDS011;77;48.792;9.032;2022-07-09T10:56:56;4.53;;;3.10;;
177;SDS011;77;48.792;9.032;2022-07-09T10:59:23;5.07;;;2.97;;
177;SDS011;77;48.792;9.032;2022-07-09T11:01:48;3.87;;;2.80;;
177;SDS011;77;48.792;9.032;2022-07-09T11:04:23;4.60;;;2.63;;
177;SDS011;77;48.792;9.032;2022-07-09T11:06:48;3.20;;;2.53;;
177;SDS011;77;48.792;9.032;2022-07-09T11:09:14;4.50;;;2.70;;
177;SDS011;77;48.792;9.032;2022-07-09T11:11:41;4.40;;;2.70;;
177;SDS011;77;48.792;9.032;2022-07-09T11:14:06;4.33;;;2.67;;
177;SDS011;77;48.792;9.032;2022-07-09T11:16:33;4.87;;;2.60;;
177;SDS011;77;48.792;9.032;2022-07-09T11:18:58;3.97;;;2.83;;
177;SDS011;77;48.792;9.032;2022-07-09T11:21:23;3.40;;;2.63;;
177;SDS011;77;48.792;9.032;2022-07-09T11:23:48;4.07;;;2.37;;
177;SDS011;77;48.792;9.032;2022-07-09T11:26:14;4.97;;;2.63;;
177;SDS011;77;48.792;9.032;2022-07-09T11:28:39;3.63;;;2.50;;
177;SDS011;77;48.792;9.032;2022-07-09T11:31:05;4.63;;;2.60;;
177;SDS011;77;48.792;9.032;2022-07-09T11:33:32;3.87;;;2.50;;
177;SDS011;77;48.792;9.032;2022-07-09T11:35:57;3.27;;;2.27;;
177;SDS011;77;48.792;9.032;2022-07-09T11:38:22;3.43;;;2.70;;
177;SDS011;77;48.792;9.032;2022-07-09T11:40:48;4.23;;;2.60;;
177;SDS011;77;48.792;9.032;2022-07-09T11:43:13;5.30;;;2.63;;
177;SDS011;77;48.792;9.032;2022-07-09T11:45:38;3.63;;;2.40;;
177;SDS011;77;48.792;9.032;2022-07-09T11:48:04;4.40;;;2.67;;
177;SDS011;77;48.792;9.032;2022-07-09T11:50:31;3.00;;;2.30;;
177;SDS011;77;48.792;9.032;2022-07-09T11:52:57;4.30;;;2.77;;
177;SDS011;77;48.792;9.032;2022-07-09T11:55:27;3.10;;;2.30;;
177;SDS011;77;48.792;9.032;2022-07-09T11:57:54;4.20;;;2.40;;
177;SDS011;77;48.792;9.032;2022-07-09T12:00:22;3.80;;;2.43;;
177;SDS011;77;48.792;9.032;2022-07-09T12:02:48;4.67;;;2.70;;
177;SDS011;77;48.792;9.032;2022-07-09T12:05:23;3.43;;;2.40;;
177;SDS011;77;48.792;9.032;2022-07-09T12:07:52;3.73;;;2.60;;
177;SDS011;77;48.792;9.032;2022-07-09T12:10:17;3.63;;;2.60;;
177;SDS011;77;48.792;9.032;2022-07-09T12:12:49;3.80;;;2.60;;
177;SDS011;77;48.792;9.032;2022-07-09T12:15:14;3.33;;;2.50;;
177;SDS011;77;48.792;9.032;2022-07-09T12:17:39;3.80;;;2.43;;
177;SDS011;77;48.792;9.032;2022-07-09T12:20:05;4.20;;;2.60;;
177;SDS011;77;48.792;9.032;2022-07-09T12:22:30;3.63;;;2.47;;
177;SDS011;77;48.792;9.032;2022-07-09T12:24:56;2.57;;;2.20;;
177;SDS011;77;48.792;9.032;2022-07-09T12:27:22;3.20;;;2.43;;
177;SDS011;77;48.792;9.032;2022-07-09T12:29:47;4.40;;;2.27;;
177;SDS011;77;48.792;9.032;2022-07-09T12:32:12;3.60;;;2.53;;
177;SDS011;77;48.792;9.032;2022-07-09T12:34:37;3.73;;;2.17;;
177;SDS011;77;48.792;9.032;2022-07-09T12:37:03;3.60;;;2.47;;
177;SDS011;77;48.792;9.032;2022-07-09T12:39:28;3.23;;;2.30;;
177;SDS011;77;48.792;9.032;2022-07-09T12:41:55;4.27;;;2.23;;
177;SDS011;77;48.792;9.032;2022-07-09T12:44:20;3.33;;;2.40;;
177;SDS011;77;48.792;9.032;2022-07-09T12:46:45;5.47;;;2.80;;
177;SDS011;77;48.792;9.032;2022-07-09T12:49:11;3.27;;;2.40;;
177;SDS011;77;48.792;9.032;2022-07-09T12:51:36;3.03;;;2.30;;
177;SDS011;77;48.792;9.032;2022-07-09T12:54:01;4.23;;;2.67;;
177;SDS011;77;48.792;9.032;2022-07-09T12:56:26;2.77;;;2.37;;
177;SDS011;77;48.792;9.032;2022-07-09T12:58:53;3.83;;;2.50;;
177;SDS011;77;48.792;9.032;2022-07-09T13:01:18;3.97;;;2.43;;
177;SDS011;77;48.792;9.032;2022-07-09T13:03:43;3.80;;;2.30;;
177;SDS011;77;48.792;9.032;2022-07-09T13:06:08;4.10;;;2.50;;
177;SDS011;77;48.792;9.032;2022-07-09T13:08:34;4.40;;;2.30;;
177;SDS011;77;48.792;9.032;2022-07-09T13:10:59;4.73;;;2.50;;
177;SDS011;77;48.792;9.032;2022-07-09T13:13:24;3.63;;;2.43;;
177;SDS011;77;48.792;9.032;2022-07-09T13:15:51;9.93;;;2.57;;
177;SDS011;77;48.792;9.032;2022-07-09T13:18:16;4.70;;;2.30;;
177;SDS011;77;48.792;9.032;2022-07-09T13:20:41;2.80;;;2.10;;
177;SDS011;77;48.792;9.032;2022-07-09T13:23:06;3.40;;;2.20;;
177;SDS011;77;48.792;9.032;2022-07-09T13:25:31;4.23;;;2.37;;
177;SDS011;77;48.792;9.032;2022-07-09T13:27:57;3.13;;;2.20;;
177;SDS011;77;48.792;9.032;2022-07-09T13:30:22;5.80;;;2.30;;
177;SDS011;77;48.792;9.032;2022-07-09T13:32:49;4.70;;;2.37;;
177;SDS011;77;48.792;9.032;2022-07-09T13:35:15;9.17;;;2.50;;
177;SDS011;77;48.792;9.032;2022-07-09T13:37:40;4.07;;;2.50;;
177;SDS011;77;48.792;9.032;2022-07-09T13:40:06;3.70;;;2.53;;
177;SDS011;77;48.792;9.032;2022-07-09T13:42:31;3.13;;;2.57;;
177;SDS011;77;48.792;9.032;2022-07-09T13:44:56;5.27;;;2.73;;
177;SDS011;77;48.792;9.032;2022-07-09T13:47:22;3.70;;;2.93;;
177;SDS011;77;48.792;9.032;2022-07-09T13:49:48;4.27;;;2.93;;
177;SDS011;77;48.792;9.032;2022-07-09T13:52:13;6.03;;;3.30;;
177;SDS011;77;48.792;9.032;2022-07-09T13:54:39;5.30;;;3.10;;
177;SDS011;77;48.792;9.032;2022-07-09T13:57:04;4.70;;;3.10;;
177;SDS011;77;48.792;9.032;2022-07-09T13:59:29;4.97;;;2.87;;
177;SDS011;77;48.792;9.032;2022-07-09T14:01:54;3.83;;;3.20;;
177;SDS011;77;48.792;9.032;2022-07-09T14:04:20;5.23;;;3.20;;
177;SDS011;77;48.792;9.032;2022-07-09T14:06:46;4.30;;;3.17;;
177;SDS011;77;48.792;9.032;2022-07-09T14:09:11;4.27;;;3.03;;
177;SDS011;77;48.792;9.032;2022-07-09T14:11:37;4.20;;;2.87;;
177;SDS011;77;48.792;9.032;2022-07-09T14:14:02;4.97;;;3.00;;
177;SDS011;77;48.792;9.032;2022-07-09T14:16:27;4.00;;;2.60;;
177;SDS011;77;48.792;9.032;2022-07-09T14:18:52;6.37;;;2.80;;
177;SDS011;77;48.792;9.032;2022-07-09T14:21:17;3.63;;;2.70;;
177;SDS011;77;48.792;9.032;2022-07-09T14:23:44;3.40;;;2.60;;
177;SDS011;77;48.792;9.032;2022-07-09T14:26:09;3.30;;;2.63;;
177;SDS011;77;48.792;9.032;2022-07-09T14:28:34;4.33;;;2.90;;
177;SDS011;77;48.792;9.032;2022-07-09T14:30:59;4.63;;;2.77;;
177;SDS011;77;48.792;9.032;2022-07-09T14:33:25;6.10;;;3.30;;
177;SDS011;77;48.792;9.032;2022-07-09T14:35:50;3.30;;;2.90;;
177;SDS011;77;48.792;9.032;2022-07-09T14:38:15;6.13;;;2.90;;
177;SDS011;77;48.792;9.032;2022-07-09T14:40:42;4.30;;;2.97;;
177;SDS011;77;48.792;9.032;2022-07-09T14:43:07;3.73;;;2.90;;
177;SDS011;77;48.792;9.032;2022-07-09T14:45:32;16.67;;;3.37;;
177;SDS011;77;48.792;9.032;2022-07-09T14:47:57;3.97;;;2.83;;
177;SDS011;77;48.792;9.032;2022-07-09T14:50:22;5.30;;;3.03;;
177;SDS011;77;48.792;9.032;2022-07-09T14:52:48;9.60;;;3.37;;
177;SDS011;77;48.792;9.032;2022-07-09T14:55:13;4.80;;;3.60;;
177;SDS011;77;48.792;9.032;2022-07-09T14:57:39;4.00;;;3.30;;
177;SDS011;77;48.792;9.032;2022-07-09T15:00:05;5.30;;;3.20;;
177;SDS011;77;48.792;9.032;2022-07-09T15:02:31;4.27;;;3.60;;
177;SDS011;77;48.792;9.032;2022-07-09T15:04:56;6.40;;;3.30;;
177;SDS011;77;48.792;9.032;2022-07-09T15:07:21;4.00;;;3.23;;
177;SDS011;77;48.792;9.032;2022-07-09T15:09:46;4.60;;;3.70;;
177;SDS011;77;48.792;9.032;2022-07-09T15:12:11;4.80;;;3.70;;
177;SDS011;77;48.792;9.032;2022-07-09T15:14:38;5.03;;;3.50;;
177;SDS011;77;48.792;9.032;2022-07-09T15:17:03;4.53;;;3.60;;
177;SDS011;77;48.792;9.032;2022-07-09T15:19:28;7.10;;;3.70;;
177;SDS011;77;48.792;9.032;2022-07-09T15:21:54;5.63;;;4.10;;
177;SDS011;77;48.792;9.032;2022-07-09T15:24:19;4.67;;;3.40;;
177;SDS011;77;48.792;9.032;2022-07-09T15:26:44;4.30;;;3.53;;
177;SDS011;77;48.792;9.032;2022-07-09T15:29:09;4.43;;;3.63;;
177;SDS011;77;48.792;9.032;2022-07-09T15:31:36;8.60;;;3.80;;
177;SDS011;77;48.792;9.032;2022-07-09T15:34:01;6.23;;;3.60;;
177;SDS011;77;48.792;9.032;2022-07-09T15:36:26;6.93;;;3.77;;
177;SDS011;77;48.792;9.032;2022-07-09T15:38:51;8.67;;;3.80;;
177;SDS011;77;48.792;9.032;2022-07-09T15:41:17;6.43;;;3.70;;
177;SDS011;77;48.792;9.032;2022-07-09T15:43:42;5.90;;;3.97;;
177;SDS011;77;48.792;9.032;2022-07-09T15:46:07;5.60;;;3.50;;
177;SDS011;77;48.792;9.032;2022-07-09T15:48:33;5.43;;;3.70;;